< < Back
Terminal Aerodrome Forecast


Current Version              Previous Versions:   1  2  3  4  5  6  7  8  9  

Terminal Aerodrome Forecast

323
FTUS44 KMOB 180300 AAB
TAFPNS
TAF AMD
KPNS 180355Z 1804/1824 03007KT 1 1/2SM +RA BR FEW022 BKN030 OVC080
      TEMPO 1804/1808 2SM SHRA BKN015
     FM180800 05014G21KT 3SM SHRA BR OVC007
     FM181600 36008G15KT 4SM -RA OVC015
     FM181900 36010G18KT P6SM VCSH SCT015 BKN050=

Latest METAR

806
SAUS70 KWBC 181300 RRK
MTRPNS
METAR KPNS 181253Z 03007KT 2SM -RA BR BKN007 BKN011 OVC029 16/14 A3004
RMK AO2 SLP174 P0020 T01610144


USA.gov is the U.S. government's official web portal to all federal, state and local government web resources and services.